Wednesday, November 26, 2014, 3:36 AM EST

KNHK, Nas Patuxent River Md

Location: Patuxent River, MD, United States Lat: 38.3
Local Time: 3:36 AM EST ( 8:36 GMT) Lon: -76.4
Time Zone: US/Eastern Elev: 39 ft

Show me the last for .
Show Decoded

2014-11-26 02:52 METAR KNHK 260752Z AUTO 01007KT 10SM -RA OVC070 08/05 A3008 RMK AO2 SLP185 P0002
                 T00830050 =
2014-11-26 01:52 METAR KNHK 260652Z AUTO 06006KT 10SM -RA OVC075 08/05 A3012 RMK AO2 SLP201 P0004
                 T00830050 =
2014-11-26 00:52 METAR KNHK 260552Z AUTO 30004KT 10SM -RA OVC075 09/06 A3013 RMK AO2 RAB29 SLP202
                 P0000 60000 T00890056 10100 20083 58011 =
2014-11-25 23:52 METAR KNHK 260452Z AUTO 36006KT 10SM BKN070 OVC085 09/04 A3015 RMK AO2 SLP209
                 T00940044 401940083 =
2014-11-25 22:52 METAR KNHK 260352Z 00000KT 10SM OVC100 08/06 A3016 RMK AO2 SLP211 T00830056 =
2014-11-25 21:52 METAR KNHK 260252Z 00000KT 10SM OVC110 08/05 A3016 RMK AO2 SLP212 T00830050
                 53014 =
2014-11-25 20:52 METAR KNHK 260152Z 33005KT 10SM SCT110 OVC150 09/06 A3012 RMK AO2 SLP199
                 T00940056 =
2014-11-25 19:52 METAR KNHK 260052Z 00000KT 10SM BKN150 OVC200 08/04 A3010 RMK AO2 SLP192
                 T00830044 =
2014-11-25 18:52 METAR KNHK 252352Z 17003KT 10SM BKN150 OVC200 09/04 A3012 RMK AO2 SLP198
                 T00940039 10128 20089 53017 =
2014-11-25 17:52 METAR KNHK 252252Z 13003KT 10SM BKN150 OVC200 09/04 A3008 RMK AO2 SLP187
                 T00940044 =
2014-11-25 16:52 METAR KNHK 252152Z 00000KT 10SM FEW060 BKN150 BKN200 11/03 A3008 RMK AO2 SLP184
                 VIRGA OHD T01060028 =
2014-11-25 15:52 METAR KNHK 252052Z 00000KT 10SM BKN150 BKN200 11/03 A3007 RMK AO2 SLP181
                 T01060033 53005 =
2014-11-25 14:52 METAR KNHK 251952Z 03006KT 10SM FEW065 FEW120 BKN150 12/02 A3004 RMK AO2 SLP172
                 T01170022 VISNO RY24 $ =
2014-11-25 13:52 METAR KNHK 251852Z 01007KT 10SM SCT035 OVC150 13/02 A3002 RMK AO2 SLP166
                 T01280022 VISNO RY24 $ =
2014-11-25 12:52 METAR KNHK 251752Z 01008KT 10SM OVC035 12/02 A3005 RMK AO2 SLP176 T01220017
                 10156 20122 50002 VISNO RY24 $ =
2014-11-25 11:52 METAR KNHK 251652Z 01008KT 10SM OVC034 12/02 A3007 RMK AO2 SLP181 T01220022
                 VISNO RY24 $ =
2014-11-25 10:52 METAR KNHK 251552Z 02006KT 10SM BKN034 OVC060 13/04 A3007 RMK AO2 SLP181
                 T01280039 VISNO RY24 $ =
2014-11-25 09:52 METAR KNHK 251452Z COR 02009KT 10SM BKN031 BKN060 OVC150 13/04 A3005 RMK AO2
                 SLP174 T01330044 51038 VISNO RY24 $ =
2014-11-25 08:30 METAR KNHK 251330Z 34007KT 10SM SCT027 BKN060 OVC150 14/06 A3001 RMK AO2
                 T01390056 =
2014-11-25 07:52 METAR KNHK 251252Z 35008KT 7SM SCT015 BKN025 OVC060 14/07 A2998 RMK AO2 SLP153
                 T01440067 =
2014-11-25 07:03 METAR KNHK 251203Z 03003KT 7SM SCT013 BKN024 BKN060 OVC150 14/14 A2995 RMK AO2
                 PRESRR T01390139 =
2014-11-25 06:52 METAR KNHK 251152Z 00000KT 7SM SCT028 BKN150 OVC200 15/14 A2993 RMK AO2 SLP136
                 T01500139 10189 20139 53018 =
2014-11-25 05:52 METAR KNHK 251052Z 23005KT 10SM FEW017 BKN160 OVC200 17/15 A2992 RMK AO2 SLP130
                 T01720150 =
2014-11-25 04:52 METAR KNHK 250952Z AUTO 22006KT 10SM CLR 17/15 A2989 RMK AO2 SLP120 T01720150 =
2014-11-25 03:52 METAR KNHK 250852Z AUTO 20006KT 10SM CLR 17/15 A2988 RMK AO2 SLP118 T01720150
                 51024 =

Support USWX by starting your Amazon purchase here.